Wetterdaten: aktuell Mittwoch, 20.06.2018 18:30
Datum Zeit Temp. A. Feuchte A. Luftdruck Regen Wind Richtung Richtung Sonnenschein ET UV Solar Taupunkt Windchill Windben
20.06.2018 18:30 30,6 C 42 % 1016,7 hPa 0,0 l/m 0,9 km/h (0 Bft) N 360 60 min 0,330 mm 1,0 UV-I 371 W/m 16,2 C 30,6 C 6,4 km/h (2 Bft)
20.06.2018 17:30 30,1 C 43 % 1017,3 hPa 0,0 l/m 2,7 km/h (1 Bft) N 355 35 min 0,407 mm 0,9 UV-I 559 W/m 16,1 C 30,1 C 8,0 km/h (2 Bft)
20.06.2018 16:30 30,2 C 44 % 1018,1 hPa 0,0 l/m 1,7 km/h (1 Bft) S 185 40 min 0,355 mm 3,1 UV-I 680 W/m 16,6 C 30,2 C 9,7 km/h (2 Bft)
20.06.2018 15:30 28,3 C 47 % 1018,8 hPa 0,0 l/m 1,4 km/h (1 Bft) S-SW 212 30 min 0,508 mm 2,8 UV-I 278 W/m 15,9 C 28,3 C 6,4 km/h (2 Bft)
20.06.2018 14:30 28,9 C 47 % 1019,5 hPa 0,0 l/m 2,1 km/h (1 Bft) N 360 55 min 0,585 mm 5,9 UV-I 882 W/m 16,4 C 28,9 C 8,0 km/h (2 Bft)
20.06.2018 13:30 27,4 C 49 % 1020,4 hPa 0,0 l/m 6,9 km/h (2 Bft) SW 230 55 min 0,533 mm 6,5 UV-I 928 W/m 15,7 C 27,3 C 14,5 km/h (3 Bft)
20.06.2018 12:30 26,5 C 54 % 1021,2 hPa 0,0 l/m 1,4 km/h (1 Bft) N-NW 348 60 min 0,483 mm 6,4 UV-I 942 W/m 16,4 C 26,5 C 6,4 km/h (2 Bft)
20.06.2018 11:30 25,6 C 59 % 1021,8 hPa 0,0 l/m 0,1 km/h (0 Bft) S 171 50 min 0,330 mm 4,7 UV-I 803 W/m 17,0 C 25,6 C 4,8 km/h (1 Bft)
20.06.2018 10:30 23,0 C 65 % 1022,5 hPa 0,0 l/m 0,3 km/h (0 Bft) S 191 20 min 0,203 mm 2,9 UV-I 325 W/m 16,1 C 23,0 C 3,2 km/h (1 Bft)
20.06.2018 09:30 22,3 C 71 % 1022,8 hPa 0,0 l/m 0,5 km/h (0 Bft) NO 53 5 min 0,127 mm 2,3 UV-I 330 W/m 16,8 C 22,3 C 4,8 km/h (1 Bft)
20.06.2018 08:30 19,6 C 80 % 1023,1 hPa 0,0 l/m 0,0 km/h (0 Bft) S-SO 151 0 min 0,076 mm 1,2 UV-I 218 W/m 16,1 C 19,6 C 1,6 km/h (1 Bft)
20.06.2018 07:30 17,2 C 84 % 1023,4 hPa 0,0 l/m 0,3 km/h (0 Bft) NW 325 0 min 0,001 mm 0,6 UV-I 128 W/m 14,5 C 17,2 C 3,2 km/h (1 Bft)
20.06.2018 06:30 16,0 C 87 % 1023,3 hPa 0,0 l/m 0,0 km/h (0 Bft) NW 325 0 min 0,000 mm 0,0 UV-I 70 W/m 13,8 C 16,0 C 0,0 km/h (0 Bft)
20.06.2018 05:30 15,4 C 87 % 1023,4 hPa 0,0 l/m 0,0 km/h (0 Bft) N 0 0 min 0,000 mm 0,0 UV-I 14 W/m 13,2 C 15,4 C 0,0 km/h (0 Bft)
20.06.2018 04:30 15,3 C 88 % 1023,5 hPa 0,0 l/m 0,0 km/h (0 Bft) N 0 0 min 0,000 mm 0,0 UV-I 0 W/m 13,3 C 15,3 C 0,0 km/h (0 Bft)
20.06.2018 03:30 14,9 C 88 % 1023,6 hPa 0,0 l/m 0,0 km/h (0 Bft) N 0 0 min 0,000 mm 0,0 UV-I 0 W/m 12,9 C 14,9 C 0,0 km/h (0 Bft)
20.06.2018 02:30 14,8 C 87 % 1023,6 hPa 0,0 l/m 0,0 km/h (0 Bft) N 0 0 min 0,000 mm 0,0 UV-I 0 W/m 12,7 C 14,8 C 0,0 km/h (0 Bft)
20.06.2018 01:30 15,4 C 85 % 1023,7 hPa 0,0 l/m 0,0 km/h (0 Bft) N 0 0 min 0,025 mm 0,0 UV-I 0 W/m 12,9 C 15,4 C 0,0 km/h (0 Bft)
20.06.2018 00:30 16,3 C 83 % 1023,5 hPa 0,0 l/m 0,0 km/h (0 Bft) N 0 0 min 0,025 mm 0,0 UV-I 0 W/m 13,4 C 16,3 C 0,0 km/h (0 Bft)
20.06.2018 00:00 16,8 C 82 % 1023,4 hPa 0,0 l/m 0,0 km/h (0 Bft) N 0 0 min 0,025 mm 0,0 UV-I 0 W/m 13,7 C 16,8 C 0,0 km/h (0 Bft)
_ Min-Zeit 03:00 18:00 18:20 - 00:00 - - - - - - 02:45 02:45 00:00
Minimum _ 14,5 C 40 % 1016,7 hPa - 0,0 km/h (0 Bft) - - - - - - 12,5 C 14,6 C 0,0 km/h (0 Bft)
_ Max-Zeit 18:00 03:35 01:30 00:00 13:30 - - 09:25 14:05 13:05 12:40 11:30 18:00 11:55
Maximum _ 31,3 C 89 % 1023,7 hPa 0,0 l/m 6,9 km/h
SW (2 Bft)
- - 5 min 0,585 mm 6,6 UV-I 1021 W/m 17,0 C 31,3 C 14,5 km/h
W (3 Bft)
Durchschnitt _ 21,8 C 68 % 1021,7 hPa #0,0 l/m 0,9 km/h (0 Bft) S-SW - #6:50 h #3,988 mm 3,1 UV-I 464 W/m 15,0 C 21,8 C 3,8 km/h (1 Bft)